createdAt,value
2017-12-30T00:00:14.472Z,5.75
2017-12-30T00:02:43.028Z,10.88
2017-12-30T00:05:11.021Z,8.68
2017-12-30T00:07:38.542Z,8.02
2017-12-30T00:10:06.945Z,9.13
2017-12-30T00:12:34.472Z,7.07
2017-12-30T00:15:03.740Z,9.93
2017-12-30T00:17:31.441Z,7.03
2017-12-30T00:19:59.036Z,18.00
2017-12-30T00:22:26.560Z,9.13
2017-12-30T00:24:54.885Z,7.12
2017-12-30T00:27:22.561Z,9.10
2017-12-30T00:29:50.076Z,8.68
2017-12-30T00:32:18.388Z,7.45
2017-12-30T00:34:46.767Z,10.05
2017-12-30T00:37:14.331Z,11.10
2017-12-30T00:39:41.921Z,20.58
2017-12-30T00:42:10.233Z,13.13
2017-12-30T00:44:37.825Z,5.80
2017-12-30T00:47:06.152Z,6.10
2017-12-30T00:49:33.660Z,8.25
2017-12-30T00:52:01.884Z,9.45
2017-12-30T00:54:30.061Z,7.30
2017-12-30T00:56:58.484Z,10.32
2017-12-30T00:59:26.026Z,8.50
2017-12-30T01:01:53.571Z,11.57
2017-12-30T01:04:21.151Z,7.85
2017-12-30T01:06:48.820Z,4.60
2017-12-30T01:09:17.596Z,5.53
2017-12-30T01:11:46.102Z,5.57
2017-12-30T01:14:14.942Z,8.05
2017-12-30T01:16:43.248Z,7.75
2017-12-30T01:19:11.778Z,6.25
2017-12-30T01:21:40.083Z,7.95
2017-12-30T01:24:08.316Z,6.85
2017-12-30T01:26:35.840Z,7.25
2017-12-30T01:29:04.117Z,7.90
2017-12-30T01:31:31.743Z,11.85
2017-12-30T01:33:59.261Z,5.87
2017-12-30T01:36:27.576Z,8.73
2017-12-30T01:38:55.124Z,7.62
2017-12-30T01:41:22.668Z,8.27
2017-12-30T01:43:51.014Z,5.57
2017-12-30T01:46:18.630Z,7.07
2017-12-30T01:48:58.885Z,4.75
2017-12-30T01:51:26.393Z,6.07
2017-12-30T01:53:53.943Z,4.15
2017-12-30T01:56:21.492Z,8.40
2017-12-30T01:58:49.076Z,6.40
2017-12-30T02:01:16.595Z,7.18
2017-12-30T02:03:44.970Z,10.10
2017-12-30T02:06:13.288Z,10.38
2017-12-30T02:08:41.578Z,9.75
2017-12-30T02:11:09.457Z,8.02
2017-12-30T02:13:37.030Z,6.12
2017-12-30T02:16:04.537Z,6.97
2017-12-30T02:18:32.854Z,9.05
2017-12-30T02:21:00.355Z,8.05
2017-12-30T02:23:29.396Z,11.55
2017-12-30T02:25:56.907Z,10.98
2017-12-30T02:28:24.693Z,6.25
2017-12-30T02:30:52.276Z,10.82
2017-12-30T02:33:20.610Z,14.60
2017-12-30T02:35:50.001Z,9.40
2017-12-30T02:38:17.612Z,14.38
2017-12-30T02:40:45.168Z,9.38
2017-12-30T02:43:12.669Z,13.10
2017-12-30T02:45:42.216Z,7.00
2017-12-30T02:48:10.590Z,12.32
2017-12-30T02:50:38.450Z,8.85
2017-12-30T02:53:06.441Z,10.88
2017-12-30T02:55:33.917Z,4.95
2017-12-30T02:58:02.609Z,9.43
2017-12-30T03:00:30.342Z,8.93
2017-12-30T03:02:58.260Z,6.55
2017-12-30T03:05:25.867Z,15.50
2017-12-30T03:07:53.368Z,14.32
2017-12-30T03:10:20.937Z,8.20
2017-12-30T03:12:48.753Z,6.18
2017-12-30T03:15:16.313Z,8.13
2017-12-30T03:17:44.661Z,10.68
2017-12-30T03:20:12.183Z,11.98
2017-12-30T03:22:39.715Z,10.18
2017-12-30T03:25:08.021Z,13.00
2017-12-30T03:27:35.528Z,7.75
2017-12-30T03:30:03.149Z,8.25
2017-12-30T03:32:31.020Z,9.80
2017-12-30T03:34:58.606Z,6.70
2017-12-30T03:37:26.184Z,8.95
2017-12-30T03:39:53.709Z,11.68
2017-12-30T03:42:22.009Z,12.18
2017-12-30T03:44:50.235Z,9.05
2017-12-30T03:47:17.760Z,8.57
2017-12-30T03:49:45.507Z,11.10
2017-12-30T03:52:13.060Z,9.75
2017-12-30T03:54:41.190Z,7.53
2017-12-30T03:57:08.976Z,7.22
2017-12-30T03:59:36.566Z,10.27
2017-12-30T04:02:04.724Z,10.18
2017-12-30T04:04:32.934Z,8.02
2017-12-30T04:07:02.052Z,8.63
2017-12-30T04:09:29.593Z,7.25
2017-12-30T04:11:57.889Z,15.10
2017-12-30T04:14:26.135Z,8.00
2017-12-30T04:16:54.034Z,8.60
2017-12-30T04:19:21.595Z,9.43
2017-12-30T04:21:49.172Z,7.60
2017-12-30T04:24:16.681Z,10.32
2017-12-30T04:26:44.688Z,10.48
2017-12-30T04:29:13.180Z,11.27
2017-12-30T04:31:40.733Z,10.27
2017-12-30T04:34:08.332Z,8.60
2017-12-30T04:36:36.847Z,6.68
2017-12-30T04:39:05.057Z,8.93
2017-12-30T04:41:32.682Z,11.02
2017-12-30T04:44:00.220Z,12.35
2017-12-30T04:46:31.527Z,7.57
2017-12-30T04:48:59.898Z,6.55
2017-12-30T04:51:27.413Z,11.32
2017-12-30T04:53:55.083Z,14.43
2017-12-30T04:56:22.609Z,9.32
2017-12-30T04:58:50.195Z,6.82
2017-12-30T05:01:17.733Z,7.57
2017-12-30T05:03:45.329Z,7.78
2017-12-30T05:06:13.620Z,9.43
2017-12-30T05:08:41.154Z,9.63
2017-12-30T05:11:09.468Z,6.72
2017-12-30T05:13:37.017Z,16.42
2017-12-30T05:16:05.373Z,40.75
2017-12-30T05:18:33.437Z,57.05
2017-12-30T05:21:01.001Z,84.32
2017-12-30T05:23:28.608Z,58.03
2017-12-30T05:25:56.182Z,73.37
2017-12-30T05:28:23.707Z,45.08
2017-12-30T05:30:51.252Z,38.58
2017-12-30T05:33:18.770Z,23.95
2017-12-30T05:35:46.481Z,24.33
2017-12-30T05:38:14.133Z,13.02
2017-12-30T05:40:41.694Z,11.05
2017-12-30T05:43:10.098Z,17.48
2017-12-30T05:45:38.173Z,10.50
2017-12-30T05:48:05.947Z,10.48
2017-12-30T05:50:33.463Z,6.68
2017-12-30T05:53:01.543Z,4.72
2017-12-30T05:55:29.110Z,7.30
2017-12-30T05:57:56.636Z,8.82
2017-12-30T06:00:24.966Z,9.85
2017-12-30T06:02:52.631Z,9.15
2017-12-30T06:05:20.148Z,8.45
2017-12-30T06:07:48.999Z,11.93
2017-12-30T06:10:16.640Z,9.38
2017-12-30T06:12:44.173Z,8.88
2017-12-30T06:15:12.577Z,8.30
2017-12-30T06:17:40.209Z,12.75
2017-12-30T06:20:08.633Z,9.13
2017-12-30T06:22:36.235Z,9.07
2017-12-30T06:25:03.829Z,10.63
2017-12-30T06:27:32.138Z,8.77
2017-12-30T06:30:00.443Z,9.25
2017-12-30T06:32:28.669Z,13.62
2017-12-30T06:34:56.270Z,11.70
2017-12-30T06:37:24.837Z,7.85
2017-12-30T06:39:53.104Z,12.60
2017-12-30T06:42:21.998Z,9.90
2017-12-30T06:44:50.273Z,9.32
2017-12-30T06:47:17.862Z,7.60
2017-12-30T06:49:45.373Z,13.62
2017-12-30T06:52:13.034Z,14.70
2017-12-30T06:54:40.534Z,11.07
2017-12-30T06:57:08.809Z,10.23
2017-12-30T06:59:36.309Z,8.35
2017-12-30T07:02:03.827Z,11.15
2017-12-30T07:04:31.389Z,9.50
2017-12-30T07:06:59.062Z,11.02
2017-12-30T07:09:26.613Z,10.23
2017-12-30T07:11:54.141Z,11.45
2017-12-30T07:14:21.659Z,9.80
2017-12-30T07:16:49.228Z,7.45
2017-12-30T07:19:16.755Z,7.12
2017-12-30T07:21:44.360Z,8.68
2017-12-30T07:24:11.861Z,8.55
2017-12-30T07:26:40.058Z,8.00
2017-12-30T07:29:07.614Z,7.45
2017-12-30T07:31:35.177Z,8.20
2017-12-30T07:34:03.173Z,6.90
2017-12-30T07:36:30.750Z,9.52
2017-12-30T07:38:58.312Z,9.35
2017-12-30T07:41:25.823Z,11.75
2017-12-30T07:43:53.391Z,8.95
2017-12-30T07:46:22.073Z,7.45
2017-12-30T07:48:49.752Z,7.10
2017-12-30T07:51:18.023Z,8.07
2017-12-30T07:53:45.581Z,8.23
2017-12-30T07:56:13.104Z,9.20
2017-12-30T07:58:40.595Z,10.57
2017-12-30T08:01:09.537Z,8.50
2017-12-30T08:03:37.056Z,9.27
2017-12-30T08:06:05.461Z,9.38
2017-12-30T08:08:32.982Z,15.77
2017-12-30T08:11:01.297Z,10.32
2017-12-30T08:13:28.817Z,9.30
2017-12-30T08:15:56.296Z,10.15
2017-12-30T08:18:24.511Z,8.70
2017-12-30T08:20:52.987Z,11.80
2017-12-30T08:23:20.847Z,16.12
2017-12-30T08:25:49.753Z,12.57
2017-12-30T08:28:18.055Z,15.43
2017-12-30T08:30:45.593Z,12.85
2017-12-30T08:33:13.152Z,14.27
2017-12-30T08:35:40.692Z,19.00
2017-12-30T08:38:08.271Z,14.43
2017-12-30T08:40:37.512Z,12.50
2017-12-30T08:43:05.146Z,10.52
2017-12-30T08:45:33.420Z,9.35
2017-12-30T08:48:01.737Z,12.50
2017-12-30T08:50:29.222Z,9.55
2017-12-30T08:52:56.794Z,8.70
2017-12-30T08:55:25.218Z,9.07
2017-12-30T08:57:53.506Z,8.55
2017-12-30T09:00:22.982Z,9.07
2017-12-30T09:02:50.517Z,9.38
2017-12-30T09:05:19.702Z,10.50
2017-12-30T09:07:47.289Z,8.90
2017-12-30T09:10:14.948Z,16.90
2017-12-30T09:12:42.626Z,9.80
2017-12-30T09:15:10.273Z,12.98
2017-12-30T09:17:37.950Z,10.23
2017-12-30T09:20:06.262Z,10.63
2017-12-30T09:22:34.143Z,11.40
2017-12-30T09:25:02.326Z,12.57
2017-12-30T09:27:29.923Z,11.90
2017-12-30T09:29:57.506Z,12.05
2017-12-30T09:32:25.103Z,15.45
2017-12-30T09:34:52.730Z,21.48
2017-12-30T09:37:20.314Z,8.88
2017-12-30T09:39:49.315Z,16.05
2017-12-30T09:42:17.048Z,10.00
2017-12-30T09:44:44.614Z,12.68
2017-12-30T09:47:12.742Z,8.40
2017-12-30T09:49:40.361Z,9.35
2017-12-30T09:52:07.873Z,11.52
2017-12-30T09:54:35.867Z,9.98
2017-12-30T09:57:03.566Z,7.55
2017-12-30T09:59:32.741Z,7.95
2017-12-30T10:02:00.589Z,7.95
2017-12-30T10:04:29.290Z,10.80
2017-12-30T10:06:57.748Z,7.35
2017-12-30T10:09:27.171Z,12.20
2017-12-30T10:11:54.819Z,6.45
2017-12-30T10:14:22.779Z,6.97
2017-12-30T10:16:50.341Z,10.07
2017-12-30T10:19:18.790Z,7.07
2017-12-30T10:21:46.566Z,9.48
2017-12-30T10:24:14.984Z,7.47
2017-12-30T10:26:43.239Z,9.53
2017-12-30T10:29:12.548Z,10.82
2017-12-30T10:31:40.200Z,10.63
2017-12-30T10:34:08.718Z,10.70
2017-12-30T10:36:36.578Z,14.23
2017-12-30T10:39:05.168Z,7.40
2017-12-30T10:41:35.629Z,5.23
2017-12-30T10:44:03.263Z,6.10
2017-12-30T10:46:30.852Z,6.12
2017-12-30T10:48:58.521Z,10.90
2017-12-30T10:51:26.052Z,8.10
2017-12-30T10:53:53.708Z,8.88
2017-12-30T10:56:21.291Z,7.80
2017-12-30T10:58:48.847Z,10.82
2017-12-30T11:01:16.348Z,11.33
2017-12-30T11:03:43.974Z,7.63
2017-12-30T11:06:11.490Z,7.43
2017-12-30T11:08:39.164Z,10.27
2017-12-30T11:11:06.819Z,9.03
2017-12-30T11:13:34.345Z,10.50
2017-12-30T11:16:01.865Z,6.57
2017-12-30T11:18:30.517Z,6.72
2017-12-30T11:20:58.090Z,12.10
2017-12-30T11:23:25.987Z,4.43
2017-12-30T11:25:53.612Z,10.37
2017-12-30T11:28:21.265Z,7.40
2017-12-30T11:30:48.788Z,11.07
2017-12-30T11:33:16.426Z,10.30
2017-12-30T11:35:45.461Z,8.73
2017-12-30T11:38:13.801Z,6.60
2017-12-30T11:40:42.226Z,13.73
2017-12-30T11:43:09.916Z,8.65
2017-12-30T11:45:37.469Z,20.60
2017-12-30T11:48:05.258Z,8.80
2017-12-30T11:50:33.749Z,10.87
2017-12-30T11:53:01.415Z,13.23
2017-12-30T11:55:28.937Z,5.13
2017-12-30T11:57:57.942Z,5.83
2017-12-30T12:00:25.460Z,4.50
2017-12-30T12:02:53.164Z,13.20
2017-12-30T12:05:22.223Z,13.20
2017-12-30T12:07:49.868Z,8.80
2017-12-30T12:10:17.477Z,8.35
2017-12-30T12:12:45.784Z,7.03
2017-12-30T12:15:13.296Z,9.20
2017-12-30T12:17:41.170Z,7.33
2017-12-30T12:20:11.462Z,8.20
2017-12-30T12:22:40.140Z,5.70
2017-12-30T12:25:07.668Z,9.90
2017-12-30T12:27:36.081Z,10.03
2017-12-30T12:30:03.930Z,5.33
2017-12-30T12:32:31.458Z,14.30
2017-12-30T12:34:59.061Z,7.20
2017-12-30T12:37:27.824Z,8.07
2017-12-30T12:39:56.784Z,8.85
2017-12-30T12:42:24.668Z,7.00
2017-12-30T12:44:52.478Z,9.27
2017-12-30T12:47:20.027Z,9.30
2017-12-30T12:49:47.553Z,12.50
2017-12-30T12:52:15.613Z,9.20
2017-12-30T12:54:43.920Z,7.17
2017-12-30T12:57:11.528Z,8.10
2017-12-30T12:59:39.176Z,11.33
2017-12-30T13:02:06.874Z,11.73
2017-12-30T13:04:35.190Z,8.50
2017-12-30T13:07:02.798Z,6.25
2017-12-30T13:09:30.475Z,10.23
2017-12-30T13:11:58.075Z,12.67
2017-12-30T13:14:25.622Z,6.00
2017-12-30T13:16:54.656Z,16.60
2017-12-30T13:19:22.334Z,8.30
2017-12-30T13:21:50.759Z,8.23
2017-12-30T13:24:19.100Z,10.73
2017-12-30T13:26:46.659Z,7.57
2017-12-30T13:29:14.230Z,8.93
2017-12-30T13:31:41.794Z,10.60
2017-12-30T13:34:09.354Z,16.00
2017-12-30T13:36:36.863Z,14.53
2017-12-30T13:39:04.504Z,12.63
2017-12-30T13:41:32.021Z,6.50
2017-12-30T13:43:59.624Z,13.93
2017-12-30T13:46:27.137Z,5.83
2017-12-30T13:48:55.507Z,10.90
2017-12-30T13:51:23.134Z,8.60
2017-12-30T13:53:50.794Z,7.80
2017-12-30T13:56:20.162Z,6.63
2017-12-30T13:58:48.466Z,10.83
2017-12-30T14:01:16.280Z,13.90
2017-12-30T14:03:43.813Z,10.30
2017-12-30T14:06:12.737Z,11.83
2017-12-30T14:08:42.761Z,8.33
2017-12-30T14:11:10.266Z,8.40
2017-12-30T14:13:39.213Z,5.00
2017-12-30T14:16:06.869Z,6.17
2017-12-30T14:18:34.516Z,15.90
2017-12-30T14:21:02.140Z,10.70
2017-12-30T14:23:31.257Z,7.10
2017-12-30T14:25:59.753Z,8.10
2017-12-30T14:28:27.301Z,6.77
2017-12-30T14:30:55.704Z,13.47
2017-12-30T14:33:26.875Z,6.70
2017-12-30T14:35:54.564Z,10.63
2017-12-30T14:38:22.324Z,10.32
2017-12-30T14:40:50.075Z,12.70
2017-12-30T14:43:18.464Z,11.47
2017-12-30T14:45:46.644Z,12.82
2017-12-30T14:48:14.933Z,11.12
2017-12-30T14:50:43.614Z,11.35
2017-12-30T14:53:11.295Z,9.43
2017-12-30T14:55:38.900Z,9.68
2017-12-30T14:58:06.553Z,6.85
2017-12-30T15:00:34.399Z,13.93
2017-12-30T15:03:01.920Z,13.32
2017-12-30T15:05:29.511Z,12.70
2017-12-30T15:07:57.810Z,8.15
2017-12-30T15:10:25.321Z,10.70
2017-12-30T15:12:53.777Z,12.50
2017-12-30T15:15:21.316Z,11.50
2017-12-30T15:17:49.046Z,19.67
2017-12-30T15:20:16.676Z,10.65
2017-12-30T15:22:44.890Z,11.05
2017-12-30T15:25:12.546Z,13.23
2017-12-30T15:27:40.831Z,14.32
2017-12-30T15:30:09.397Z,13.30
2017-12-30T15:32:37.567Z,20.33
2017-12-30T15:35:05.135Z,16.80
2017-12-30T15:37:33.459Z,18.23
2017-12-30T15:40:00.970Z,28.48
2017-12-30T15:42:28.616Z,20.62
2017-12-30T15:44:56.138Z,14.95
2017-12-30T15:47:24.449Z,14.25
2017-12-30T15:49:51.971Z,15.73
2017-12-30T15:52:20.987Z,11.77
2017-12-30T15:54:49.290Z,15.80
2017-12-30T15:57:16.844Z,14.93
2017-12-30T15:59:44.952Z,19.10
2017-12-30T16:02:12.492Z,19.17
2017-12-30T16:04:40.074Z,17.92
2017-12-30T16:07:07.661Z,13.60
2017-12-30T16:09:35.237Z,13.27
2017-12-30T16:12:02.821Z,14.20
2017-12-30T16:14:32.138Z,15.15
2017-12-30T16:16:59.975Z,13.13
2017-12-30T16:19:28.762Z,18.67
2017-12-30T16:21:56.314Z,18.25
2017-12-30T16:24:23.839Z,18.17
2017-12-30T16:26:51.340Z,16.65
2017-12-30T16:29:19.021Z,17.15
2017-12-30T16:31:47.370Z,15.43
2017-12-30T16:34:15.797Z,13.32
2017-12-30T16:36:44.175Z,19.70
2017-12-30T16:39:11.670Z,14.63
2017-12-30T16:41:40.036Z,18.35
2017-12-30T16:44:08.309Z,12.77
2017-12-30T16:46:35.810Z,20.98
2017-12-30T16:49:03.424Z,20.48
2017-12-30T16:51:31.117Z,22.85
2017-12-30T16:53:59.450Z,23.85
2017-12-30T16:56:27.092Z,23.58
2017-12-30T16:58:54.659Z,27.67
2017-12-30T17:01:22.237Z,22.52
2017-12-30T17:03:49.768Z,21.52
2017-12-30T17:06:18.070Z,26.15
2017-12-30T17:08:45.745Z,25.00
2017-12-30T17:11:13.238Z,24.45
2017-12-30T17:13:41.581Z,27.05
2017-12-30T17:16:09.150Z,22.40
2017-12-30T17:18:36.748Z,20.23
2017-12-30T17:21:04.426Z,23.05
2017-12-30T17:23:32.461Z,29.75
2017-12-30T17:26:00.017Z,38.38
2017-12-30T17:28:28.398Z,28.15
2017-12-30T17:30:57.535Z,22.47
2017-12-30T17:33:25.970Z,28.33
2017-12-30T17:35:54.241Z,21.95
2017-12-30T17:38:22.243Z,21.43
2017-12-30T17:40:50.009Z,20.57
2017-12-30T17:43:17.698Z,25.55
2017-12-30T17:45:45.216Z,24.70
2017-12-30T17:48:13.515Z,34.97
2017-12-30T17:50:41.114Z,60.00
2017-12-30T17:53:08.703Z,35.43
2017-12-30T17:55:36.313Z,35.40
2017-12-30T17:58:03.925Z,36.10
2017-12-30T18:00:31.458Z,29.50
2017-12-30T18:02:59.044Z,17.17
2017-12-30T18:05:26.588Z,13.63
2017-12-30T18:07:54.123Z,23.87
2017-12-30T18:10:22.530Z,28.67
2017-12-30T18:12:50.211Z,27.10
2017-12-30T18:15:17.729Z,26.67
2017-12-30T18:17:46.124Z,28.17
2017-12-30T18:20:13.686Z,25.23
2017-12-30T18:22:41.231Z,18.83
2017-12-30T18:25:10.285Z,20.33
2017-12-30T18:27:37.858Z,29.97
2017-12-30T18:30:05.452Z,18.53
2017-12-30T18:32:32.982Z,14.50
2017-12-30T18:35:01.470Z,15.43
2017-12-30T18:37:29.825Z,21.87
2017-12-30T18:39:58.289Z,32.30
2017-12-30T18:42:25.829Z,39.20
2017-12-30T18:44:53.542Z,19.40
2017-12-30T18:47:21.554Z,23.50
2017-12-30T18:49:49.232Z,15.10
2017-12-30T18:52:19.349Z,15.10
2017-12-30T18:54:46.946Z,31.07
2017-12-30T18:57:14.524Z,13.27
2017-12-30T18:59:42.062Z,17.13
2017-12-30T19:02:10.143Z,14.77
2017-12-30T19:04:38.459Z,26.10
2017-12-30T19:07:06.042Z,23.10
2017-12-30T19:09:33.724Z,16.63
2017-12-30T19:12:02.114Z,14.30
2017-12-30T19:14:29.619Z,18.87
2017-12-30T19:16:57.136Z,22.50
2017-12-30T19:19:24.766Z,20.80
2017-12-30T19:21:52.385Z,18.87
2017-12-30T19:24:19.917Z,15.63
2017-12-30T19:26:47.603Z,11.70
2017-12-30T19:29:15.229Z,14.13
2017-12-30T19:31:42.757Z,26.13
2017-12-30T19:34:11.123Z,25.50
2017-12-30T19:36:38.635Z,31.87
2017-12-30T19:39:06.147Z,24.70
2017-12-30T19:41:33.629Z,14.13
2017-12-30T19:44:02.025Z,14.87
2017-12-30T19:46:30.365Z,20.40
2017-12-30T19:48:57.884Z,15.73
2017-12-30T19:51:25.409Z,20.90
2017-12-30T19:53:52.884Z,25.43
2017-12-30T19:56:21.157Z,11.17
2017-12-30T19:58:48.668Z,12.97
2017-12-30T20:01:16.173Z,12.50
2017-12-30T20:03:43.746Z,16.63
2017-12-30T20:06:11.288Z,11.67
2017-12-30T20:08:38.783Z,18.00
2017-12-30T20:11:07.024Z,11.70
2017-12-30T20:13:34.759Z,21.30
2017-12-30T20:16:02.897Z,14.40
2017-12-30T20:18:31.195Z,10.73
2017-12-30T20:20:58.729Z,13.63
2017-12-30T20:23:26.271Z,22.10
2017-12-30T20:25:53.750Z,13.70
2017-12-30T20:28:21.269Z,18.03
2017-12-30T20:30:48.797Z,23.13
2017-12-30T20:33:17.321Z,14.50
2017-12-30T20:35:44.903Z,16.13
2017-12-30T20:38:12.476Z,18.20
2017-12-30T20:40:41.331Z,21.87
2017-12-30T20:43:08.978Z,21.33
2017-12-30T20:45:37.253Z,13.20
2017-12-30T20:48:04.786Z,19.17
2017-12-30T20:50:32.289Z,21.27
2017-12-30T20:53:00.709Z,17.37
2017-12-30T20:55:28.273Z,23.20
2017-12-30T20:57:55.777Z,21.43
2017-12-30T21:00:23.322Z,15.33
2017-12-30T21:02:50.840Z,18.40
2017-12-30T21:05:19.143Z,23.10
2017-12-30T21:07:46.739Z,14.97
2017-12-30T21:10:14.230Z,29.60
2017-12-30T21:12:42.513Z,14.50
2017-12-30T21:15:10.100Z,23.83
2017-12-30T21:17:37.654Z,28.57
2017-12-30T21:20:05.918Z,16.40
2017-12-30T21:22:33.492Z,23.67
2017-12-30T21:25:01.067Z,27.30
2017-12-30T21:27:28.773Z,22.90
2017-12-30T21:29:57.026Z,17.03
2017-12-30T21:32:24.641Z,24.60
2017-12-30T21:34:52.155Z,20.17
2017-12-30T21:37:19.645Z,17.80
2017-12-30T21:39:47.236Z,18.93
2017-12-30T21:42:14.726Z,27.33
2017-12-30T21:44:43.036Z,15.23
2017-12-30T21:47:10.561Z,14.90
2017-12-30T21:49:39.449Z,18.80
2017-12-30T21:52:08.025Z,28.63
2017-12-30T21:54:35.591Z,19.30
2017-12-30T21:57:04.830Z,17.07
2017-12-30T21:59:34.102Z,26.17
2017-12-30T22:02:01.907Z,24.77
2017-12-30T22:04:29.853Z,18.70
2017-12-30T22:06:57.548Z,23.80
2017-12-30T22:09:25.871Z,19.70
2017-12-30T22:11:53.425Z,16.00
2017-12-30T22:14:20.977Z,15.60
2017-12-30T22:16:48.491Z,14.60
2017-12-30T22:19:16.186Z,20.23
2017-12-30T22:21:44.464Z,20.13
2017-12-30T22:24:12.047Z,14.40
2017-12-30T22:26:39.696Z,19.40
2017-12-30T22:29:08.619Z,15.57
2017-12-30T22:31:36.158Z,17.33
2017-12-30T22:34:04.471Z,13.07
2017-12-30T22:36:32.021Z,17.67
2017-12-30T22:38:59.680Z,19.83
2017-12-30T22:41:27.271Z,9.67
2017-12-30T22:43:54.890Z,9.63
2017-12-30T22:46:23.263Z,13.33
2017-12-30T22:48:51.689Z,10.70
2017-12-30T22:51:19.738Z,18.30
2017-12-30T22:53:47.256Z,15.93
2017-12-30T22:56:14.806Z,12.23
2017-12-30T22:58:42.361Z,24.00
2017-12-30T23:01:09.953Z,14.80
2017-12-30T23:03:37.582Z,13.37
2017-12-30T23:06:05.382Z,12.50
2017-12-30T23:08:32.933Z,8.87
2017-12-30T23:11:00.415Z,9.93
2017-12-30T23:13:27.990Z,12.33
2017-12-30T23:15:55.612Z,7.33
2017-12-30T23:18:23.179Z,10.10
2017-12-30T23:20:50.760Z,16.93
2017-12-30T23:23:18.427Z,14.40
2017-12-30T23:25:46.132Z,9.93
2017-12-30T23:28:13.742Z,11.47
2017-12-30T23:30:41.416Z,7.37
2017-12-30T23:33:09.030Z,14.97
2017-12-30T23:35:36.511Z,6.60
2017-12-30T23:38:04.894Z,10.20
2017-12-30T23:40:33.176Z,8.07
2017-12-30T23:43:00.727Z,10.33
2017-12-30T23:45:28.278Z,7.20
2017-12-30T23:47:55.870Z,11.23
2017-12-30T23:50:24.155Z,10.33
2017-12-30T23:52:52.421Z,12.80
2017-12-30T23:55:21.217Z,9.00
2017-12-30T23:57:49.362Z,9.90
